Weather at Alexandria International Airport

Public forecast

Using degrees Fahrenheit for public forecast. Weather courtesy of forecast.io.

Current aviation weather report (METAR) for Alexandria International Airport

Retrieved 2020/09/27 21:53 UTC (25 minutes ago):

KAEX 272153Z 18010KT 10SM FEW055 31/19 A2975 RMK AO2 SLP077 T03060194

Aviation forecast (TAF) for Alexandria International Airport

Retrieved 2020/09/27 18:51 UTC (3 hours ago):

TAF KAEX 271749Z 2718/2818 19008KT P6SM SCT030 FM280200 17005KT P6SM FEW015 SCT030 FM280600 17005KT P6SM SCT015 BKN025 FM281100 17006KT P6SM VCTS SCT015CB OVC025 TEMPO 2811/2815 VRB10G20KT 4SM TS BKN015CB FM281500 31015G21KT P6SM OVC015